createdAt,value
2019-03-27T00:00:04.044Z,10.08
2019-03-27T00:02:35.795Z,10.30
2019-03-27T00:05:06.419Z,9.95
2019-03-27T00:07:36.748Z,10.40
2019-03-27T00:10:10.455Z,10.15
2019-03-27T00:12:40.784Z,10.38
2019-03-27T00:15:13.949Z,10.15
2019-03-27T00:17:44.439Z,10.88
2019-03-27T00:20:16.867Z,10.50
2019-03-27T00:22:47.173Z,10.93
2019-03-27T00:25:17.442Z,10.38
2019-03-27T00:27:47.665Z,9.93
2019-03-27T00:30:19.705Z,10.88
2019-03-27T00:32:49.997Z,11.20
2019-03-27T00:35:20.847Z,10.50
2019-03-27T00:37:51.089Z,11.15
2019-03-27T00:40:22.423Z,11.03
2019-03-27T00:42:52.663Z,11.55
2019-03-27T00:45:26.889Z,11.12
2019-03-27T00:47:54.884Z,10.98
2019-03-27T00:50:25.172Z,11.35
2019-03-27T00:52:55.362Z,11.48
2019-03-27T00:55:25.656Z,11.90
2019-03-27T00:57:55.922Z,11.80
2019-03-27T01:00:34.483Z,13.28
2019-03-27T01:03:04.673Z,12.05
2019-03-27T01:05:34.903Z,13.08
2019-03-27T01:08:05.163Z,12.98
2019-03-27T01:10:35.556Z,12.45
2019-03-27T01:13:05.933Z,12.28
2019-03-27T01:15:39.940Z,11.10
2019-03-27T01:18:09.257Z,12.18
2019-03-27T01:20:39.541Z,12.37
2019-03-27T01:23:10.264Z,12.63
2019-03-27T01:25:40.562Z,12.23
2019-03-27T01:28:10.865Z,13.32
2019-03-27T01:30:41.205Z,14.30
2019-03-27T01:33:11.403Z,15.25
2019-03-27T01:35:41.730Z,14.73
2019-03-27T01:38:11.990Z,16.45
2019-03-27T01:40:43.728Z,19.27
2019-03-27T01:43:13.913Z,18.95
2019-03-27T01:45:52.987Z,19.10
2019-03-27T01:48:16.064Z,18.00
2019-03-27T01:50:46.416Z,16.42
2019-03-27T01:53:16.598Z,16.55
2019-03-27T01:55:46.942Z,15.95
2019-03-27T01:58:17.165Z,16.82
2019-03-27T02:00:47.467Z,17.23
2019-03-27T02:03:17.666Z,16.05
2019-03-27T02:05:47.997Z,19.05
2019-03-27T02:08:18.273Z,18.42
2019-03-27T02:10:48.584Z,18.87
2019-03-27T02:13:18.881Z,18.92
2019-03-27T02:15:50.807Z,20.25
2019-03-27T02:18:21.013Z,18.52
2019-03-27T02:20:51.287Z,17.32
2019-03-27T02:23:21.474Z,17.50
2019-03-27T02:25:51.748Z,18.65
2019-03-27T02:28:21.951Z,20.60
2019-03-27T02:30:52.181Z,21.10
2019-03-27T02:33:22.366Z,22.05
2019-03-27T02:35:52.650Z,21.23
2019-03-27T02:38:22.930Z,22.40
2019-03-27T02:40:53.255Z,21.05
2019-03-27T02:43:23.493Z,21.02
2019-03-27T02:45:53.784Z,21.57
2019-03-27T02:48:24.035Z,19.87
2019-03-27T02:50:54.337Z,19.77
2019-03-27T02:53:24.537Z,20.00
2019-03-27T02:55:54.774Z,18.20
2019-03-27T02:58:25.207Z,17.57
2019-03-27T03:00:55.511Z,17.52
2019-03-27T03:03:26.864Z,17.48
2019-03-27T03:06:00.313Z,17.00
2019-03-27T03:08:30.838Z,15.57
2019-03-27T03:11:01.061Z,16.42
2019-03-27T03:13:31.367Z,18.23
2019-03-27T03:16:01.609Z,17.50
2019-03-27T03:18:31.868Z,17.17
2019-03-27T03:21:02.098Z,17.50
2019-03-27T03:23:32.300Z,17.55
2019-03-27T03:26:02.566Z,17.82
2019-03-27T03:28:32.833Z,19.10
2019-03-27T03:31:03.120Z,25.23
2019-03-27T03:33:33.387Z,23.90
2019-03-27T03:36:04.194Z,29.02
2019-03-27T03:38:34.374Z,21.35
2019-03-27T03:41:04.645Z,19.87
2019-03-27T03:43:34.905Z,18.57
2019-03-27T03:46:05.165Z,18.37
2019-03-27T03:48:36.474Z,19.02
2019-03-27T03:51:06.660Z,16.55
2019-03-27T03:53:36.876Z,16.90
2019-03-27T03:56:08.183Z,17.55
2019-03-27T03:58:40.858Z,16.80
2019-03-27T04:01:11.628Z,15.77
2019-03-27T04:03:44.933Z,16.42
2019-03-27T04:06:15.175Z,14.98
2019-03-27T04:08:45.488Z,16.23
2019-03-27T04:11:15.739Z,15.70
2019-03-27T04:13:46.005Z,15.25
2019-03-27T04:16:16.699Z,15.23
2019-03-27T04:18:47.228Z,15.72
2019-03-27T04:21:17.897Z,17.77
2019-03-27T04:23:48.068Z,16.97
2019-03-27T04:26:18.261Z,16.42
2019-03-27T04:28:48.560Z,16.85
2019-03-27T04:31:18.760Z,18.20
2019-03-27T04:33:49.050Z,17.20
2019-03-27T04:36:19.318Z,18.32
2019-03-27T04:38:49.541Z,17.60
2019-03-27T04:41:19.723Z,18.67
2019-03-27T04:43:50.025Z,21.07
2019-03-27T04:46:20.294Z,18.85
2019-03-27T04:48:51.078Z,20.10
2019-03-27T04:51:21.459Z,19.23
2019-03-27T04:53:51.763Z,19.55
2019-03-27T04:56:21.965Z,18.77
2019-03-27T04:58:52.266Z,19.15
2019-03-27T05:01:22.456Z,19.27
2019-03-27T05:03:53.557Z,20.17
2019-03-27T05:06:23.751Z,20.88
2019-03-27T05:08:54.044Z,20.32
2019-03-27T05:11:24.961Z,22.15
2019-03-27T05:13:55.438Z,22.75
2019-03-27T05:16:25.666Z,20.50
2019-03-27T05:18:55.988Z,19.67
2019-03-27T05:21:26.213Z,22.32
2019-03-27T05:23:56.509Z,22.62
2019-03-27T05:26:26.760Z,24.72
2019-03-27T05:28:56.986Z,23.02
2019-03-27T05:31:27.267Z,19.42
2019-03-27T05:33:57.485Z,16.55
2019-03-27T05:36:27.762Z,16.05
2019-03-27T05:38:58.061Z,17.12
2019-03-27T05:41:28.324Z,15.70
2019-03-27T05:43:58.620Z,15.00
2019-03-27T05:46:28.888Z,15.83
2019-03-27T05:48:59.194Z,15.60
2019-03-27T05:51:29.401Z,14.85
2019-03-27T05:54:00.332Z,15.43
2019-03-27T05:56:30.544Z,15.53
2019-03-27T05:59:00.813Z,15.13
2019-03-27T06:01:31.016Z,15.78
2019-03-27T06:04:01.278Z,16.02
2019-03-27T06:06:31.547Z,15.28
2019-03-27T06:09:02.443Z,15.53
2019-03-27T06:11:32.916Z,14.80
2019-03-27T06:14:03.390Z,14.38
2019-03-27T06:16:33.842Z,14.87
2019-03-27T06:19:04.120Z,15.13
2019-03-27T06:21:34.815Z,13.78
2019-03-27T06:24:05.157Z,15.00
2019-03-27T06:26:35.488Z,13.05
2019-03-27T06:29:05.906Z,13.62
2019-03-27T06:31:36.163Z,13.70
2019-03-27T06:34:06.808Z,12.73
2019-03-27T06:36:37.138Z,13.08
2019-03-27T06:39:07.346Z,12.53
2019-03-27T06:41:37.669Z,10.82
2019-03-27T06:44:08.082Z,13.65
2019-03-27T06:46:38.281Z,13.45
2019-03-27T06:49:08.576Z,13.28
2019-03-27T06:51:40.648Z,10.75
2019-03-27T06:54:11.067Z,10.88
2019-03-27T06:56:42.089Z,11.43
2019-03-27T06:59:12.408Z,11.63
2019-03-27T07:01:42.683Z,12.50
2019-03-27T07:04:12.989Z,11.33
2019-03-27T07:06:43.189Z,10.05
2019-03-27T07:09:13.423Z,10.00
2019-03-27T07:11:43.699Z,10.00
2019-03-27T07:14:13.990Z,9.65
2019-03-27T07:16:46.094Z,8.53
2019-03-27T07:19:16.435Z,8.80
2019-03-27T07:21:46.655Z,9.33
2019-03-27T07:24:17.466Z,10.38
2019-03-27T07:26:47.763Z,8.73
2019-03-27T07:29:19.202Z,7.75
2019-03-27T07:31:49.943Z,8.35
2019-03-27T07:34:21.190Z,7.70
2019-03-27T07:36:51.422Z,6.83
2019-03-27T07:39:21.682Z,6.80
2019-03-27T07:41:51.986Z,8.03
2019-03-27T07:44:22.202Z,7.67
2019-03-27T07:46:53.496Z,9.00
2019-03-27T07:49:23.762Z,7.35
2019-03-27T07:51:54.049Z,7.20
2019-03-27T07:54:24.308Z,6.72
2019-03-27T07:56:54.605Z,7.78
2019-03-27T07:59:24.915Z,7.47
2019-03-27T08:01:55.258Z,7.35
2019-03-27T08:04:25.477Z,6.90
2019-03-27T08:06:55.771Z,6.25
2019-03-27T08:09:26.033Z,7.65
2019-03-27T08:11:56.319Z,9.60
2019-03-27T08:14:26.569Z,7.20
2019-03-27T08:16:57.248Z,7.62
2019-03-27T08:19:27.577Z,7.03
2019-03-27T08:21:57.878Z,8.25
2019-03-27T08:24:29.171Z,6.55
2019-03-27T08:26:59.393Z,5.87
2019-03-27T08:29:29.677Z,6.85
2019-03-27T08:32:00.489Z,8.53
2019-03-27T08:34:30.649Z,7.55
2019-03-27T08:37:00.941Z,6.08
2019-03-27T08:39:31.557Z,7.85
2019-03-27T08:42:02.211Z,7.58
2019-03-27T08:44:32.391Z,6.90
2019-03-27T08:47:03.429Z,7.50
2019-03-27T08:49:33.646Z,9.13
2019-03-27T08:52:04.946Z,10.60
2019-03-27T08:54:35.204Z,8.58
2019-03-27T08:57:05.503Z,8.00
2019-03-27T08:59:36.477Z,10.30
2019-03-27T09:02:06.683Z,12.50
2019-03-27T09:04:37.538Z,13.05
2019-03-27T09:07:07.809Z,15.63
2019-03-27T09:09:38.582Z,15.53
2019-03-27T09:12:08.811Z,14.90
2019-03-27T09:14:39.128Z,14.87
2019-03-27T09:17:09.424Z,15.35
2019-03-27T09:19:39.752Z,14.68
2019-03-27T09:22:10.052Z,9.63
2019-03-27T09:24:40.339Z,8.73
2019-03-27T09:27:10.631Z,10.50
2019-03-27T09:29:40.819Z,9.10
2019-03-27T09:32:11.096Z,9.78
2019-03-27T09:34:41.296Z,10.45
2019-03-27T09:37:11.520Z,10.75
2019-03-27T09:39:41.984Z,10.70
2019-03-27T09:42:12.429Z,12.07
2019-03-27T09:44:42.638Z,8.28
2019-03-27T09:47:13.766Z,9.03
2019-03-27T09:49:49.804Z,10.10
2019-03-27T09:52:15.958Z,9.50
2019-03-27T09:54:46.144Z,7.87
2019-03-27T09:57:16.360Z,7.55
2019-03-27T09:59:46.713Z,8.85
2019-03-27T10:02:16.955Z,7.75
2019-03-27T10:04:47.209Z,8.58
2019-03-27T10:07:17.504Z,7.10
2019-03-27T10:09:50.392Z,6.35
2019-03-27T10:12:19.694Z,9.05
2019-03-27T10:14:50.095Z,7.72
2019-03-27T10:17:21.875Z,7.58
2019-03-27T10:20:02.760Z,7.87
2019-03-27T10:22:24.265Z,9.70
2019-03-27T10:24:54.602Z,7.00
2019-03-27T10:27:25.221Z,7.05
2019-03-27T10:29:55.563Z,6.05
2019-03-27T10:32:25.855Z,10.15
2019-03-27T10:34:56.605Z,7.22
2019-03-27T10:37:29.616Z,7.37
2019-03-27T10:39:59.934Z,7.65
2019-03-27T10:42:30.464Z,6.67
2019-03-27T10:45:00.724Z,6.95
2019-03-27T10:47:31.008Z,5.08
2019-03-27T10:50:01.260Z,5.30
2019-03-27T10:52:31.559Z,5.80
2019-03-27T10:55:01.813Z,6.90
2019-03-27T10:57:32.046Z,6.65
2019-03-27T11:00:02.319Z,6.28
2019-03-27T11:02:32.910Z,5.92
2019-03-27T11:05:05.198Z,6.15
2019-03-27T11:07:36.063Z,6.08
2019-03-27T11:10:08.751Z,5.28
2019-03-27T11:12:39.055Z,8.15
2019-03-27T11:15:11.712Z,4.80
2019-03-27T11:17:42.090Z,4.78
2019-03-27T11:20:12.736Z,5.03
2019-03-27T11:22:43.037Z,5.45
2019-03-27T11:25:13.727Z,5.25
2019-03-27T11:27:44.150Z,5.83
2019-03-27T11:30:15.025Z,5.08
2019-03-27T11:32:45.344Z,5.15
2019-03-27T11:35:15.610Z,5.00
2019-03-27T11:37:45.916Z,4.53
2019-03-27T11:40:17.104Z,6.22
2019-03-27T11:42:48.478Z,5.45
2019-03-27T11:45:18.716Z,5.30
2019-03-27T11:47:49.004Z,5.75
2019-03-27T11:50:19.672Z,6.60
2019-03-27T11:52:50.140Z,7.03
2019-03-27T11:55:20.386Z,7.70
2019-03-27T11:57:50.682Z,9.33
2019-03-27T12:00:20.987Z,5.47
2019-03-27T12:02:51.702Z,5.87
2019-03-27T12:05:21.938Z,7.53
2019-03-27T12:07:52.192Z,9.05
2019-03-27T12:10:22.436Z,8.73
2019-03-27T12:12:52.734Z,9.13
2019-03-27T12:15:33.198Z,9.53
2019-03-27T12:18:03.528Z,8.93
2019-03-27T12:20:33.808Z,8.03
2019-03-27T12:23:05.131Z,7.12
2019-03-27T12:25:35.516Z,7.65
2019-03-27T12:28:05.792Z,8.60
2019-03-27T12:30:36.124Z,7.80
2019-03-27T12:33:13.207Z,6.65
2019-03-27T12:35:43.531Z,6.12
2019-03-27T12:38:13.719Z,5.05
2019-03-27T12:40:44.669Z,4.55
2019-03-27T12:43:14.884Z,4.87
2019-03-27T12:45:45.071Z,5.00
2019-03-27T12:48:15.569Z,6.28
2019-03-27T12:50:47.392Z,6.75
2019-03-27T12:53:17.687Z,7.95
2019-03-27T12:55:48.674Z,7.65
2019-03-27T12:58:18.950Z,6.75
2019-03-27T13:00:49.331Z,6.45
2019-03-27T13:03:19.759Z,6.97
2019-03-27T13:05:49.957Z,7.95
2019-03-27T13:08:20.242Z,8.48
2019-03-27T13:10:50.443Z,7.90
2019-03-27T13:13:20.741Z,7.62
2019-03-27T13:15:51.000Z,7.15
2019-03-27T13:18:21.220Z,7.72
2019-03-27T13:20:51.532Z,7.83
2019-03-27T13:23:21.760Z,6.87
2019-03-27T13:25:52.081Z,7.72
2019-03-27T13:28:23.438Z,9.75
2019-03-27T13:30:53.650Z,7.10
2019-03-27T13:33:23.903Z,6.87
2019-03-27T13:35:54.208Z,7.53
2019-03-27T13:38:24.456Z,7.35
2019-03-27T13:40:55.487Z,6.70
2019-03-27T13:43:26.951Z,6.62
2019-03-27T13:45:57.331Z,6.47
2019-03-27T13:48:27.997Z,6.62
2019-03-27T13:50:58.255Z,6.22
2019-03-27T13:53:28.467Z,6.72
2019-03-27T13:55:59.189Z,5.83
2019-03-27T13:58:29.629Z,5.30
2019-03-27T14:00:59.969Z,5.85
2019-03-27T14:03:30.212Z,5.80
2019-03-27T14:06:01.465Z,5.95
2019-03-27T14:08:31.769Z,6.00
2019-03-27T14:11:02.103Z,6.30
2019-03-27T14:13:32.831Z,7.78
2019-03-27T14:16:04.063Z,8.53
2019-03-27T14:18:34.965Z,8.25
2019-03-27T14:21:05.864Z,8.25
2019-03-27T14:23:36.167Z,8.05
2019-03-27T14:26:06.437Z,8.73
2019-03-27T14:28:37.166Z,8.88
2019-03-27T14:31:07.522Z,8.80
2019-03-27T14:33:37.822Z,8.23
2019-03-27T14:36:08.103Z,9.53
2019-03-27T14:38:38.384Z,9.50
2019-03-27T14:41:08.933Z,9.08
2019-03-27T14:43:39.220Z,9.00
2019-03-27T14:46:09.419Z,9.65
2019-03-27T14:48:39.736Z,9.18
2019-03-27T14:51:10.013Z,9.00
2019-03-27T14:53:40.952Z,8.60
2019-03-27T14:56:11.210Z,9.13
2019-03-27T14:58:41.500Z,8.40
2019-03-27T15:01:11.762Z,7.80
2019-03-27T15:03:41.973Z,7.53
2019-03-27T15:06:12.232Z,7.47
2019-03-27T15:08:42.554Z,8.05
2019-03-27T15:11:13.708Z,7.67
2019-03-27T15:13:44.000Z,7.97
2019-03-27T15:16:15.498Z,7.67
2019-03-27T15:18:45.732Z,7.87
2019-03-27T15:21:16.025Z,7.58
2019-03-27T15:23:46.326Z,8.48
2019-03-27T15:26:16.521Z,8.20
2019-03-27T15:28:46.738Z,8.80
2019-03-27T15:31:20.775Z,9.38
2019-03-27T15:33:48.951Z,10.68
2019-03-27T15:36:19.754Z,9.78
2019-03-27T15:38:50.040Z,10.20
2019-03-27T15:41:21.300Z,11.15
2019-03-27T15:43:51.703Z,11.08
2019-03-27T15:46:22.501Z,11.00
2019-03-27T15:48:52.811Z,11.83
2019-03-27T15:51:24.125Z,10.68
2019-03-27T15:53:54.452Z,10.98
2019-03-27T15:56:25.331Z,11.48
2019-03-27T15:58:56.386Z,12.75
2019-03-27T16:01:26.895Z,12.90
2019-03-27T16:03:57.185Z,13.50
2019-03-27T16:06:27.383Z,12.88
2019-03-27T16:08:57.616Z,13.50
2019-03-27T16:11:28.426Z,11.93
2019-03-27T16:13:58.803Z,12.20
2019-03-27T16:16:29.067Z,12.98
2019-03-27T16:18:59.387Z,13.00
2019-03-27T16:21:29.739Z,15.50
2019-03-27T16:24:06.401Z,15.38
2019-03-27T16:26:31.828Z,14.07
2019-03-27T16:29:21.434Z,13.38
2019-03-27T16:31:52.359Z,14.53
2019-03-27T16:34:25.096Z,13.90
2019-03-27T16:36:54.439Z,14.20
2019-03-27T16:39:24.727Z,15.63
2019-03-27T16:41:55.402Z,14.45
2019-03-27T16:44:25.703Z,15.80
2019-03-27T16:46:56.005Z,15.20
2019-03-27T16:49:26.309Z,16.50
2019-03-27T16:51:56.909Z,15.70
2019-03-27T16:54:27.169Z,15.48
2019-03-27T16:56:57.472Z,14.45
2019-03-27T16:59:28.497Z,14.30
2019-03-27T17:01:59.341Z,14.40
2019-03-27T17:04:29.574Z,19.07
2019-03-27T17:06:59.831Z,18.40
2019-03-27T17:09:30.102Z,18.37
2019-03-27T17:12:00.443Z,16.95
2019-03-27T17:14:31.039Z,16.60
2019-03-27T17:17:01.279Z,15.40
2019-03-27T17:19:39.070Z,15.48
2019-03-27T17:22:19.441Z,16.32
2019-03-27T17:24:41.303Z,16.23
2019-03-27T17:27:11.589Z,16.80
2019-03-27T17:29:42.557Z,15.70
2019-03-27T17:32:12.855Z,16.73
2019-03-27T17:34:43.152Z,16.20
2019-03-27T17:37:13.439Z,18.90
2019-03-27T17:39:43.745Z,18.87
2019-03-27T17:42:14.108Z,18.50
2019-03-27T17:44:44.405Z,16.87
2019-03-27T17:47:14.699Z,21.68
2019-03-27T17:49:45.049Z,23.05
2019-03-27T17:52:15.391Z,26.05
2019-03-27T17:54:47.135Z,30.05
2019-03-27T17:57:18.434Z,27.23
2019-03-27T17:59:50.340Z,25.52
2019-03-27T18:02:22.655Z,23.05
2019-03-27T18:04:55.732Z,22.58
2019-03-27T18:07:26.031Z,20.75
2019-03-27T18:09:56.376Z,22.05
2019-03-27T18:12:27.036Z,23.02
2019-03-27T18:14:59.110Z,21.77
2019-03-27T18:17:29.489Z,23.38
2019-03-27T18:19:59.758Z,23.32
2019-03-27T18:22:30.457Z,23.18
2019-03-27T18:25:00.997Z,21.87
2019-03-27T18:27:31.340Z,22.17
2019-03-27T18:30:01.731Z,21.45
2019-03-27T18:32:32.223Z,21.55
2019-03-27T18:35:02.589Z,22.85
2019-03-27T18:37:32.866Z,21.27
2019-03-27T18:40:03.423Z,22.62
2019-03-27T18:42:33.689Z,21.30
2019-03-27T18:45:05.437Z,21.20
2019-03-27T18:47:35.718Z,22.13
2019-03-27T18:50:07.728Z,21.97
2019-03-27T18:52:37.960Z,21.80
2019-03-27T18:55:09.530Z,21.02
2019-03-27T18:57:39.774Z,22.65
2019-03-27T19:00:11.371Z,21.42
2019-03-27T19:02:41.764Z,22.32
2019-03-27T19:05:12.412Z,20.77
2019-03-27T19:07:43.340Z,20.70
2019-03-27T19:10:14.571Z,21.30
2019-03-27T19:12:44.853Z,22.07
2019-03-27T19:15:15.379Z,23.15
2019-03-27T19:17:45.691Z,22.98
2019-03-27T19:20:16.197Z,25.80
2019-03-27T19:22:46.869Z,29.52
2019-03-27T19:25:17.132Z,31.75
2019-03-27T19:27:47.323Z,30.77
2019-03-27T19:30:17.963Z,23.02
2019-03-27T19:32:48.237Z,22.05
2019-03-27T19:35:18.603Z,24.77
2019-03-27T19:37:50.727Z,22.25
2019-03-27T19:40:20.731Z,23.85
2019-03-27T19:42:50.999Z,21.80
2019-03-27T19:45:21.333Z,21.60
2019-03-27T19:47:51.518Z,21.10
2019-03-27T19:50:22.539Z,21.07
2019-03-27T19:52:52.689Z,21.52
2019-03-27T19:55:23.183Z,21.85
2019-03-27T19:57:53.465Z,21.60
2019-03-27T20:00:24.238Z,20.95
2019-03-27T20:02:54.537Z,21.45
2019-03-27T20:05:24.942Z,21.55
2019-03-27T20:07:55.251Z,21.42
2019-03-27T20:10:25.578Z,22.02
2019-03-27T20:12:55.882Z,20.72
2019-03-27T20:15:26.357Z,20.82
2019-03-27T20:17:56.632Z,20.05
2019-03-27T20:20:27.103Z,20.43
2019-03-27T20:22:57.291Z,20.72
2019-03-27T20:25:27.643Z,19.95
2019-03-27T20:27:58.012Z,19.42
2019-03-27T20:30:28.632Z,19.50
2019-03-27T20:32:58.894Z,19.77
2019-03-27T20:35:29.802Z,17.80
2019-03-27T20:38:00.273Z,19.17
2019-03-27T20:40:31.734Z,19.57
2019-03-27T20:43:04.890Z,19.98
2019-03-27T20:45:35.317Z,19.65
2019-03-27T20:48:05.587Z,19.23
2019-03-27T20:50:35.948Z,18.00
2019-03-27T20:53:10.592Z,18.40
2019-03-27T20:55:43.756Z,18.35
2019-03-27T20:58:14.139Z,18.65
2019-03-27T21:00:44.583Z,19.00
2019-03-27T21:03:14.833Z,18.70
2019-03-27T21:05:46.920Z,18.82
2019-03-27T21:08:18.818Z,18.40
2019-03-27T21:10:53.226Z,17.62
2019-03-27T21:13:23.489Z,18.23
2019-03-27T21:15:55.400Z,18.10
2019-03-27T21:18:25.695Z,16.65
2019-03-27T21:20:56.082Z,16.97
2019-03-27T21:23:26.559Z,17.67
2019-03-27T21:25:56.819Z,17.05
2019-03-27T21:28:27.307Z,17.65
2019-03-27T21:30:57.803Z,17.42
2019-03-27T21:33:31.183Z,16.87
2019-03-27T21:36:03.056Z,17.37
2019-03-27T21:38:33.444Z,17.25
2019-03-27T21:41:03.840Z,17.77
2019-03-27T21:43:34.355Z,17.62
2019-03-27T21:46:04.858Z,18.77
2019-03-27T21:48:39.172Z,16.87
2019-03-27T21:51:11.668Z,19.02
2019-03-27T21:53:41.921Z,19.07
2019-03-27T21:56:12.337Z,19.98
2019-03-27T21:58:43.751Z,20.80
2019-03-27T22:01:14.124Z,21.60
2019-03-27T22:03:44.669Z,20.70
2019-03-27T22:06:19.382Z,21.12
2019-03-27T22:08:49.684Z,22.22
2019-03-27T22:11:20.127Z,23.15
2019-03-27T22:13:50.397Z,21.35
2019-03-27T22:16:20.848Z,21.35
2019-03-27T22:18:51.155Z,22.67
2019-03-27T22:21:21.618Z,22.42
2019-03-27T22:23:53.016Z,22.37
2019-03-27T22:26:23.376Z,22.02
2019-03-27T22:28:53.786Z,22.80
2019-03-27T22:31:24.284Z,21.12
2019-03-27T22:33:56.045Z,22.73
2019-03-27T22:36:26.397Z,22.37
2019-03-27T22:38:57.045Z,21.97
2019-03-27T22:41:27.775Z,22.35
2019-03-27T22:44:01.229Z,21.57
2019-03-27T22:46:31.596Z,22.42
2019-03-27T22:49:05.221Z,22.52
2019-03-27T22:51:35.538Z,22.35
2019-03-27T22:54:05.812Z,22.52
2019-03-27T22:56:36.186Z,22.77
2019-03-27T22:59:06.472Z,22.25
2019-03-27T23:01:45.341Z,22.70
2019-03-27T23:04:15.621Z,21.87
2019-03-27T23:06:45.991Z,21.20
2019-03-27T23:09:16.274Z,23.12
2019-03-27T23:11:49.708Z,22.52
2019-03-27T23:14:19.976Z,22.93
2019-03-27T23:16:50.504Z,22.42
2019-03-27T23:19:20.828Z,24.05
2019-03-27T23:21:51.108Z,22.50
2019-03-27T23:24:21.424Z,22.15
2019-03-27T23:26:51.779Z,22.75
2019-03-27T23:29:23.639Z,23.47
2019-03-27T23:31:53.922Z,22.82
2019-03-27T23:34:24.240Z,24.15
2019-03-27T23:36:55.678Z,23.83
2019-03-27T23:39:26.017Z,23.55
2019-03-27T23:41:56.318Z,24.77
2019-03-27T23:44:26.673Z,24.65
2019-03-27T23:46:56.959Z,24.85
2019-03-27T23:49:27.296Z,24.27
2019-03-27T23:51:57.569Z,24.98
2019-03-27T23:54:27.905Z,26.05
2019-03-27T23:56:58.186Z,27.25
2019-03-27T23:59:28.516Z,27.50
